createdAt,value
2022-10-18T00:00:26.386Z,102320.77
2022-10-18T00:03:35.323Z,102321.00
2022-10-18T00:06:23.819Z,102318.69
2022-10-18T00:09:12.057Z,102327.69
2022-10-18T00:12:00.283Z,102319.14
2022-10-18T00:14:51.522Z,102318.52
2022-10-18T00:18:26.763Z,102312.65
2022-10-18T00:21:17.545Z,102314.66
2022-10-18T00:24:07.018Z,102305.30
2022-10-18T00:26:55.256Z,102308.16
2022-10-18T00:29:43.787Z,102304.92
2022-10-18T00:32:35.613Z,102294.70
2022-10-18T00:35:23.251Z,102290.74
2022-10-18T00:38:11.260Z,102290.84
2022-10-18T00:40:59.600Z,102286.88
2022-10-18T00:44:00.855Z,102287.93
2022-10-18T00:46:51.116Z,102291.02
2022-10-18T00:49:42.500Z,102285.97
2022-10-18T00:52:37.045Z,102288.83
2022-10-18T00:55:47.428Z,102269.59
2022-10-18T00:58:44.653Z,102280.55
2022-10-18T01:01:33.280Z,102278.13
2022-10-18T01:04:22.773Z,102284.45
2022-10-18T01:07:19.926Z,102278.58
2022-10-18T01:10:23.211Z,102277.72
2022-10-18T01:13:25.816Z,102275.44
2022-10-18T01:16:21.202Z,102266.90
2022-10-18T01:19:28.798Z,102260.91
2022-10-18T01:22:22.287Z,102259.34
2022-10-18T01:25:27.164Z,102263.03
2022-10-18T01:28:30.786Z,102259.78
2022-10-18T01:31:23.528Z,102250.43
2022-10-18T01:34:25.682Z,102259.28
2022-10-18T01:37:18.005Z,102256.95
2022-10-18T01:40:12.961Z,102253.72
2022-10-18T01:43:03.358Z,102251.18
2022-10-18T01:45:54.287Z,102252.34
2022-10-18T01:48:42.743Z,102242.77
2022-10-18T01:51:32.903Z,102237.84
2022-10-18T01:54:27.770Z,102245.02
2022-10-18T01:57:24.545Z,102239.84
2022-10-18T02:00:16.937Z,102246.27
2022-10-18T02:03:10.452Z,102245.66
2022-10-18T02:06:05.945Z,102247.66
2022-10-18T02:08:59.677Z,102247.87
2022-10-18T02:12:08.395Z,102243.67
2022-10-18T02:15:01.479Z,102250.93
2022-10-18T02:17:50.717Z,102252.00
2022-10-18T02:20:39.344Z,102250.41
2022-10-18T02:23:28.172Z,102250.74
2022-10-18T02:26:19.816Z,102247.37
2022-10-18T02:29:08.540Z,102241.47
2022-10-18T02:32:04.193Z,102234.74
2022-10-18T02:34:59.563Z,102239.39
2022-10-18T02:37:49.389Z,102241.28
2022-10-18T02:40:37.235Z,102242.44
2022-10-18T02:43:26.700Z,102246.11
2022-10-18T02:46:16.479Z,102239.28
2022-10-18T02:49:34.645Z,102239.59
2022-10-18T02:52:46.564Z,102249.36
2022-10-18T02:55:35.119Z,102244.31
2022-10-18T02:58:23.414Z,102241.89
2022-10-18T03:01:11.789Z,102244.53
2022-10-18T03:03:59.743Z,102242.96
2022-10-18T03:06:47.902Z,102246.53
2022-10-18T03:09:35.772Z,102244.94
2022-10-18T03:12:23.852Z,102249.46
2022-10-18T03:15:12.501Z,102257.47
2022-10-18T03:18:00.756Z,102253.24
2022-10-18T03:20:48.682Z,102248.93
2022-10-18T03:23:36.633Z,102249.99
2022-10-18T03:26:29.433Z,102251.88
2022-10-18T03:29:30.219Z,102247.66
2022-10-18T03:32:18.982Z,102247.03
2022-10-18T03:35:09.137Z,102245.44
2022-10-18T03:37:57.132Z,102249.01
2022-10-18T03:40:45.155Z,102246.50
2022-10-18T03:43:33.429Z,102244.91
2022-10-18T03:46:21.313Z,102261.53
2022-10-18T03:49:10.051Z,102250.16
2022-10-18T03:51:58.070Z,102252.91
2022-10-18T03:54:46.428Z,102248.59
2022-10-18T03:57:34.673Z,102242.48
2022-10-18T04:00:23.385Z,102247.85
2022-10-18T04:03:11.005Z,102250.56
2022-10-18T04:06:21.267Z,102245.22
2022-10-18T04:09:10.376Z,102246.05
2022-10-18T04:11:58.322Z,102246.05
2022-10-18T04:14:46.507Z,102250.27
2022-10-18T04:17:35.182Z,102244.08
2022-10-18T04:20:24.253Z,102238.70
2022-10-18T04:23:15.211Z,102244.81
2022-10-18T04:26:09.551Z,102236.94
2022-10-18T04:29:06.372Z,102233.45
2022-10-18T04:31:54.949Z,102226.51
2022-10-18T04:37:31.714Z,102234.52
2022-10-18T04:40:20.207Z,102224.00
2022-10-18T04:43:17.583Z,102225.77
2022-10-18T04:46:10.854Z,102227.66
2022-10-18T04:49:01.135Z,102236.40
2022-10-18T04:51:49.344Z,102232.09
2022-10-18T04:54:37.807Z,102228.60
2022-10-18T04:57:25.402Z,102225.89
2022-10-18T05:00:15.417Z,102225.03
2022-10-18T05:03:03.823Z,102223.34
2022-10-18T05:06:07.259Z,102226.63
2022-10-18T05:08:55.847Z,102230.08
2022-10-18T05:11:43.857Z,102231.77
2022-10-18T05:14:31.803Z,102224.62
2022-10-18T05:17:20.814Z,102234.92
2022-10-18T05:20:10.161Z,102234.72
2022-10-18T05:22:59.833Z,102233.58
2022-10-18T05:25:47.932Z,102233.28
2022-10-18T05:28:40.087Z,102240.02
2022-10-18T05:31:29.263Z,102239.69
2022-10-18T05:34:20.213Z,102252.41
2022-10-18T05:37:07.829Z,102244.23
2022-10-18T05:39:55.838Z,102245.58
2022-10-18T05:42:43.695Z,102242.66
2022-10-18T05:45:31.839Z,102249.27
2022-10-18T05:48:20.210Z,102249.70
2022-10-18T05:51:08.624Z,102251.05
2022-10-18T05:53:56.516Z,102257.56
2022-10-18T05:56:44.515Z,102256.19
2022-10-18T05:59:32.620Z,102258.39
2022-10-18T06:02:20.930Z,102263.95
2022-10-18T06:05:09.358Z,102258.17
2022-10-18T06:07:58.227Z,102266.36
2022-10-18T06:10:46.186Z,102269.30
2022-10-18T06:13:34.369Z,102265.15
2022-10-18T06:16:28.519Z,102271.22
2022-10-18T06:19:19.720Z,102272.01
2022-10-18T06:22:07.787Z,102273.87
2022-10-18T06:24:57.274Z,102280.02
2022-10-18T06:27:45.956Z,102277.44
2022-10-18T06:30:34.674Z,102280.97
2022-10-18T06:33:24.227Z,102279.20
2022-10-18T06:36:15.098Z,102273.86
2022-10-18T06:39:04.053Z,102284.20
2022-10-18T06:41:52.550Z,102274.15
2022-10-18T06:44:40.698Z,102267.45
2022-10-18T06:47:29.033Z,102264.49
2022-10-18T06:50:17.331Z,102260.40
2022-10-18T06:53:08.216Z,102266.14
2022-10-18T06:56:01.470Z,102262.72
2022-10-18T06:58:50.020Z,102265.41
2022-10-18T07:01:38.560Z,102263.17
2022-10-18T07:04:29.688Z,102258.89
2022-10-18T07:07:22.160Z,102255.27
2022-10-18T07:10:13.331Z,102257.91
2022-10-18T07:13:20.059Z,102260.23
2022-10-18T07:16:14.292Z,102251.98
2022-10-18T07:19:05.170Z,102257.76
2022-10-18T07:21:53.108Z,102253.22
2022-10-18T07:24:41.272Z,102252.27
2022-10-18T07:27:30.125Z,102255.48
2022-10-18T07:30:18.855Z,102256.00
2022-10-18T07:33:06.746Z,102251.64
2022-10-18T07:35:54.759Z,102244.31
2022-10-18T07:38:44.782Z,102238.80
2022-10-18T07:41:33.659Z,102238.70
2022-10-18T07:44:22.006Z,102243.73
2022-10-18T07:47:09.989Z,102235.38
2022-10-18T07:49:58.130Z,102236.92
2022-10-18T07:52:48.455Z,102241.78
2022-10-18T07:55:36.708Z,102241.42
2022-10-18T07:58:25.262Z,102237.27
2022-10-18T08:01:15.125Z,102235.23
2022-10-18T08:04:07.213Z,102235.81
2022-10-18T08:06:57.309Z,102230.77
2022-10-18T08:09:45.164Z,102230.34
2022-10-18T08:12:33.839Z,102226.39
2022-10-18T08:15:24.422Z,102222.59
2022-10-18T08:18:12.935Z,102218.59
2022-10-18T08:21:02.899Z,102217.41
2022-10-18T08:23:51.285Z,102220.56
2022-10-18T08:26:39.119Z,102213.18
2022-10-18T08:29:31.490Z,102204.65
2022-10-18T08:32:20.671Z,102205.23
2022-10-18T08:35:09.847Z,102203.15
2022-10-18T08:37:58.844Z,102201.85
2022-10-18T08:40:48.244Z,102197.25
2022-10-18T08:43:41.892Z,102193.44
2022-10-18T08:46:31.078Z,102199.48
2022-10-18T08:49:28.462Z,102194.21
2022-10-18T08:52:26.495Z,102191.55
2022-10-18T08:55:20.118Z,102179.85
2022-10-18T08:58:19.489Z,102177.81
2022-10-18T09:01:21.586Z,102186.13
2022-10-18T09:04:16.247Z,102170.87
2022-10-18T09:07:27.151Z,102168.98
2022-10-18T09:10:29.326Z,102168.61
2022-10-18T09:13:57.053Z,102174.94
2022-10-18T09:16:55.950Z,102169.32
2022-10-18T09:19:56.200Z,102156.66
2022-10-18T09:22:52.390Z,102155.75
2022-10-18T09:25:47.161Z,102145.75
2022-10-18T09:28:45.280Z,102142.97
2022-10-18T09:31:44.684Z,102139.55
2022-10-18T09:34:39.722Z,102135.73
2022-10-18T09:37:32.541Z,102130.20
2022-10-18T09:40:26.795Z,102125.10
2022-10-18T09:43:21.281Z,102116.45
2022-10-18T09:46:13.710Z,102111.94
2022-10-18T09:49:05.968Z,102104.93
2022-10-18T09:51:55.948Z,102104.33
2022-10-18T09:54:49.833Z,102103.56
2022-10-18T09:57:43.103Z,102096.94
2022-10-18T10:00:47.799Z,102093.02
2022-10-18T10:03:35.817Z,102089.47
2022-10-18T10:06:28.982Z,102088.03
2022-10-18T10:09:25.109Z,102085.96
2022-10-18T10:12:29.033Z,102079.12
2022-10-18T10:15:22.771Z,102072.47
2022-10-18T10:18:20.163Z,102069.32
2022-10-18T10:24:27.394Z,102066.38
2022-10-18T10:27:21.996Z,102056.82
2022-10-18T10:30:24.847Z,102049.53
2022-10-18T10:33:35.696Z,102040.97
2022-10-18T10:36:27.137Z,102032.42
2022-10-18T10:39:18.559Z,102031.55
2022-10-18T10:42:13.451Z,102016.16
2022-10-18T10:45:02.230Z,102016.27
2022-10-18T10:47:52.590Z,102013.91
2022-10-18T10:51:09.018Z,102006.39
2022-10-18T10:54:02.908Z,102002.16
2022-10-18T10:56:58.180Z,101997.53
2022-10-18T10:59:52.636Z,101995.39
2022-10-18T11:02:44.267Z,101984.52
2022-10-18T11:05:46.570Z,101984.02
2022-10-18T11:12:03.707Z,101981.53
2022-10-18T11:15:32.941Z,101975.47
2022-10-18T11:22:43.063Z,101953.61
2022-10-18T11:25:59.617Z,101938.16
2022-10-18T11:29:05.135Z,101933.28
2022-10-18T11:32:04.668Z,101930.47
2022-10-18T11:35:10.494Z,101918.74
2022-10-18T11:38:12.661Z,101912.28
2022-10-18T11:41:17.577Z,101901.02
2022-10-18T11:44:17.684Z,101895.73
2022-10-18T11:47:15.326Z,101884.00
2022-10-18T11:50:13.455Z,101878.50
2022-10-18T11:53:14.085Z,101882.97
2022-10-18T11:56:10.027Z,101875.83
2022-10-18T11:59:20.949Z,101872.41
2022-10-18T12:02:36.575Z,101857.02
2022-10-18T12:05:28.940Z,101862.77
2022-10-18T12:08:21.679Z,101855.83
2022-10-18T12:19:45.800Z,101851.64
2022-10-18T12:23:22.682Z,101840.09
2022-10-18T12:26:16.651Z,101835.05
2022-10-18T12:29:18.866Z,101827.27
2022-10-18T12:32:12.259Z,101831.39
2022-10-18T12:35:05.055Z,101826.79
2022-10-18T12:38:16.276Z,101825.98
2022-10-18T12:41:08.775Z,101814.31
2022-10-18T12:44:05.603Z,101815.38
2022-10-18T12:46:58.992Z,101814.09
2022-10-18T12:49:59.927Z,101807.63
2022-10-18T12:53:06.936Z,101798.56
2022-10-18T12:56:15.954Z,101799.87
2022-10-18T12:59:51.082Z,101803.97
2022-10-18T13:02:39.429Z,101794.80
2022-10-18T13:05:56.629Z,101792.92
2022-10-18T13:08:47.718Z,101794.57
2022-10-18T13:11:36.592Z,101783.16
2022-10-18T13:15:07.066Z,101784.22
2022-10-18T13:18:11.039Z,101780.35
2022-10-18T13:21:12.717Z,101777.64
2022-10-18T13:24:33.273Z,101775.75
2022-10-18T13:27:39.928Z,101769.53
2022-10-18T13:30:51.007Z,101760.83
2022-10-18T13:33:41.321Z,101751.87
2022-10-18T13:36:32.803Z,101750.81
2022-10-18T13:39:21.742Z,101754.36
2022-10-18T13:42:33.437Z,101746.23
2022-10-18T13:45:54.613Z,101743.76
2022-10-18T13:49:14.978Z,101731.55
2022-10-18T13:52:17.925Z,101726.00
2022-10-18T13:55:29.923Z,101727.54
2022-10-18T13:58:28.595Z,101730.14
2022-10-18T14:01:30.098Z,101725.90
2022-10-18T14:05:16.544Z,101719.33
2022-10-18T14:08:15.695Z,101712.41
2022-10-18T14:11:13.637Z,101716.28
2022-10-18T14:14:12.923Z,101702.88
2022-10-18T14:17:12.997Z,101706.52
2022-10-18T14:20:19.978Z,101695.84
2022-10-18T14:23:16.163Z,101695.61
2022-10-18T14:26:13.257Z,101685.97
2022-10-18T14:29:06.906Z,101685.04
2022-10-18T14:31:57.775Z,101682.19
2022-10-18T14:34:46.776Z,101676.08
2022-10-18T14:37:37.591Z,101666.89
2022-10-18T14:40:33.067Z,101667.02
2022-10-18T14:43:21.791Z,101662.77
2022-10-18T14:46:23.653Z,101654.19
2022-10-18T14:49:21.184Z,101658.03
2022-10-18T14:53:14.025Z,101658.23
2022-10-18T14:56:04.264Z,101647.63
2022-10-18T14:58:53.318Z,101655.45
2022-10-18T15:01:50.884Z,101652.45
2022-10-18T15:04:38.791Z,101652.42
2022-10-18T15:07:28.772Z,101645.30
2022-10-18T15:10:20.249Z,101642.77
2022-10-18T15:13:10.517Z,101642.12
2022-10-18T15:16:00.639Z,101643.31
2022-10-18T15:19:02.772Z,101640.75
2022-10-18T15:22:19.819Z,101632.98
2022-10-18T15:25:31.530Z,101635.20
2022-10-18T15:28:29.942Z,101636.56
2022-10-18T15:31:26.508Z,101636.06
2022-10-18T15:34:21.397Z,101631.82
2022-10-18T15:37:28.521Z,101627.58
2022-10-18T15:40:35.930Z,101623.72
2022-10-18T15:43:37.600Z,101630.44
2022-10-18T15:46:38.902Z,101624.72
2022-10-18T15:49:54.811Z,101627.08
2022-10-18T15:52:43.740Z,101625.05
2022-10-18T15:55:51.852Z,101614.77
2022-10-18T15:58:43.417Z,101624.27
2022-10-18T16:01:36.757Z,101623.89
2022-10-18T16:04:28.236Z,101623.47
2022-10-18T16:07:16.741Z,101620.80
2022-10-18T16:10:13.775Z,101628.21
2022-10-18T16:13:02.496Z,101632.30
2022-10-18T16:15:51.811Z,101628.09
2022-10-18T16:18:40.349Z,101626.58
2022-10-18T16:21:31.161Z,101625.49
2022-10-18T16:24:25.091Z,101618.61
2022-10-18T16:27:14.412Z,101631.30
2022-10-18T16:30:06.083Z,101624.20
2022-10-18T16:32:58.203Z,101615.67
2022-10-18T16:35:46.094Z,101617.63
2022-10-18T16:38:36.491Z,101618.51
2022-10-18T16:41:25.224Z,101613.05
2022-10-18T16:44:14.619Z,101612.30
2022-10-18T16:47:03.394Z,101612.17
2022-10-18T16:49:51.550Z,101614.70
2022-10-18T16:52:39.475Z,101613.72
2022-10-18T16:55:27.912Z,101606.20
2022-10-18T16:58:18.001Z,101608.71
2022-10-18T17:01:08.864Z,101604.05
2022-10-18T17:03:57.472Z,101610.85
2022-10-18T17:06:45.455Z,101602.63
2022-10-18T17:09:36.438Z,101601.27
2022-10-18T17:12:24.467Z,101591.05
2022-10-18T17:15:13.989Z,101591.31
2022-10-18T17:18:03.674Z,101583.75
2022-10-18T17:20:52.305Z,101582.91
2022-10-18T17:23:40.537Z,101576.19
2022-10-18T17:26:29.999Z,101568.63
2022-10-18T17:29:18.517Z,101567.39
2022-10-18T17:32:07.135Z,101564.50
2022-10-18T17:34:56.215Z,101564.73
2022-10-18T17:37:46.735Z,101568.42
2022-10-18T17:40:39.046Z,101564.16
2022-10-18T17:43:28.523Z,101566.06
2022-10-18T17:46:18.874Z,101558.28
2022-10-18T17:49:07.043Z,101563.84
2022-10-18T17:51:55.149Z,101562.39
2022-10-18T17:54:43.210Z,101560.95
2022-10-18T17:57:31.916Z,101548.84
2022-10-18T18:00:20.753Z,101549.06
2022-10-18T18:03:08.905Z,101548.44
2022-10-18T18:05:57.089Z,101544.15
2022-10-18T18:08:45.890Z,101541.52
2022-10-18T18:11:35.053Z,101538.03
2022-10-18T18:14:24.009Z,101528.41
2022-10-18T18:17:13.659Z,101528.43
2022-10-18T18:20:02.179Z,101526.78
2022-10-18T18:22:52.138Z,101529.45
2022-10-18T18:25:40.724Z,101517.95
2022-10-18T18:28:28.940Z,101521.46
2022-10-18T18:31:19.413Z,101516.97
2022-10-18T18:34:09.127Z,101513.50
2022-10-18T18:36:57.000Z,101509.19
2022-10-18T18:39:45.015Z,101505.01
2022-10-18T18:42:34.352Z,101499.69
2022-10-18T18:45:23.147Z,101498.69
2022-10-18T18:48:12.128Z,101496.69
2022-10-18T18:51:01.345Z,101503.83
2022-10-18T18:53:50.891Z,101491.36
2022-10-18T18:56:39.579Z,101491.19
2022-10-18T18:59:27.804Z,101490.33
2022-10-18T19:02:15.747Z,101486.66
2022-10-18T19:05:04.572Z,101489.14
2022-10-18T19:07:52.575Z,101484.63
2022-10-18T19:10:40.871Z,101483.60
2022-10-18T19:13:28.692Z,101476.28
2022-10-18T19:16:27.067Z,101476.92
2022-10-18T19:19:17.300Z,101476.75
2022-10-18T19:22:07.970Z,101472.08
2022-10-18T19:24:56.418Z,101470.20
2022-10-18T19:27:44.654Z,101469.17
2022-10-18T19:30:32.546Z,101461.85
2022-10-18T19:33:35.446Z,101462.48
2022-10-18T19:36:31.580Z,101458.66
2022-10-18T19:39:21.501Z,101453.95
2022-10-18T19:42:17.054Z,101448.43
2022-10-18T19:45:10.065Z,101449.73
2022-10-18T19:47:58.162Z,101442.41
2022-10-18T19:50:46.213Z,101445.85
2022-10-18T19:53:35.149Z,101442.66
2022-10-18T19:56:24.849Z,101433.54
2022-10-18T19:59:15.102Z,101427.88
2022-10-18T20:02:04.448Z,101432.80
2022-10-18T20:04:53.130Z,101428.77
2022-10-18T20:07:42.368Z,101429.25
2022-10-18T20:10:30.335Z,101427.89
2022-10-18T20:13:19.897Z,101430.16
2022-10-18T20:16:09.926Z,101421.00
2022-10-18T20:18:59.478Z,101419.65
2022-10-18T20:21:48.357Z,101419.14
2022-10-18T20:24:36.391Z,101411.64
2022-10-18T20:27:25.082Z,101411.12
2022-10-18T20:30:14.104Z,101413.23
2022-10-18T20:33:02.645Z,101410.89
2022-10-18T20:35:52.299Z,101406.88
2022-10-18T20:38:42.507Z,101405.52
2022-10-18T20:41:32.080Z,101405.83
2022-10-18T20:44:22.108Z,101395.72
2022-10-18T20:47:10.541Z,101399.64
2022-10-18T20:49:58.514Z,101392.02
2022-10-18T20:52:50.615Z,101396.75
2022-10-18T20:55:38.542Z,101397.22
2022-10-18T20:58:28.391Z,101397.65
2022-10-18T21:01:19.034Z,101390.02
2022-10-18T21:04:10.377Z,101390.31
2022-10-18T21:07:00.545Z,101387.84
2022-10-18T21:09:48.584Z,101379.36
2022-10-18T21:12:37.368Z,101372.57
2022-10-18T21:15:25.920Z,101370.91
2022-10-18T21:18:13.915Z,101361.45
2022-10-18T21:21:10.325Z,101364.26
2022-10-18T21:24:01.272Z,101355.78
2022-10-18T21:26:52.147Z,101355.95
2022-10-18T21:29:40.395Z,101345.67
2022-10-18T21:32:29.100Z,101341.50
2022-10-18T21:35:17.379Z,101343.45
2022-10-18T21:38:06.308Z,101335.99
2022-10-18T21:40:54.534Z,101335.31
2022-10-18T21:43:44.545Z,101326.83
2022-10-18T21:46:32.984Z,101323.67
2022-10-18T21:49:24.571Z,101317.70
2022-10-18T21:52:12.588Z,101318.81
2022-10-18T21:55:00.811Z,101308.55
2022-10-18T21:57:49.195Z,101309.52
2022-10-18T22:00:38.717Z,101302.74
2022-10-18T22:03:27.241Z,101301.37
2022-10-18T22:06:16.761Z,101296.52
2022-10-18T22:09:07.740Z,101295.02
2022-10-18T22:11:56.041Z,101288.38
2022-10-18T22:14:43.880Z,101274.78
2022-10-18T22:17:32.220Z,101271.59
2022-10-18T22:20:22.967Z,101283.42
2022-10-18T22:23:12.503Z,101274.29
2022-10-18T22:26:04.593Z,101270.12
2022-10-18T22:28:57.289Z,101260.14
2022-10-18T22:31:47.557Z,101241.14
2022-10-18T22:34:36.163Z,101238.80
2022-10-18T22:37:24.605Z,101240.88
2022-10-18T22:40:13.044Z,101224.63
2022-10-18T22:43:01.344Z,101234.66
2022-10-18T22:45:49.365Z,101232.89
2022-10-18T22:48:37.849Z,101224.42
2022-10-18T22:51:26.687Z,101228.20
2022-10-18T22:54:14.994Z,101219.59
2022-10-18T22:57:02.867Z,101217.24
2022-10-18T22:59:51.622Z,101212.09
2022-10-18T23:02:39.453Z,101208.38
2022-10-18T23:05:27.839Z,101210.48
2022-10-18T23:08:15.741Z,101209.92
2022-10-18T23:11:03.649Z,101212.85
2022-10-18T23:13:52.687Z,101206.89
2022-10-18T23:16:41.263Z,101205.91
2022-10-18T23:19:29.625Z,101199.95
2022-10-18T23:22:20.729Z,101191.23
2022-10-18T23:25:09.928Z,101185.11
2022-10-18T23:27:59.075Z,101185.11
2022-10-18T23:30:46.814Z,101182.63
2022-10-18T23:33:34.923Z,101183.60
2022-10-18T23:36:24.317Z,101178.33
2022-10-18T23:39:12.658Z,101180.27
2022-10-18T23:42:00.486Z,101173.47
2022-10-18T23:44:48.641Z,101169.17
2022-10-18T23:47:36.773Z,101159.76
2022-10-18T23:50:24.693Z,101160.05
2022-10-18T23:53:12.894Z,101158.52
2022-10-18T23:56:04.803Z,101147.28
2022-10-18T23:58:52.768Z,101153.69
